sensor_id;sensor_type;location;lat;lon;timestamp;P1;durP1;ratioP1;P2;durP2;ratioP2
74634;SDS011;63140;56.306;43.984;2022-09-27T00:00:42;22.33;;;12.57;;
74634;SDS011;63140;56.306;43.984;2022-09-27T00:03:11;22.70;;;11.23;;
74634;SDS011;63140;56.306;43.984;2022-09-27T00:05:37;19.92;;;10.05;;
74634;SDS011;63140;56.306;43.984;2022-09-27T00:08:03;22.48;;;11.55;;
74634;SDS011;63140;56.306;43.984;2022-09-27T00:10:29;19.27;;;10.63;;
74634;SDS011;63140;56.306;43.984;2022-09-27T00:12:55;21.23;;;11.33;;
74634;SDS011;63140;56.306;43.984;2022-09-27T00:15:22;20.67;;;11.80;;
74634;SDS011;63140;56.306;43.984;2022-09-27T00:17:48;18.48;;;10.48;;
74634;SDS011;63140;56.306;43.984;2022-09-27T00:20:16;23.23;;;12.10;;
74634;SDS011;63140;56.306;43.984;2022-09-27T00:22:45;19.98;;;9.73;;
74634;SDS011;63140;56.306;43.984;2022-09-27T00:25:12;24.33;;;13.10;;
74634;SDS011;63140;56.306;43.984;2022-09-27T00:27:39;26.17;;;12.20;;
74634;SDS011;63140;56.306;43.984;2022-09-27T00:30:05;29.13;;;13.17;;
74634;SDS011;63140;56.306;43.984;2022-09-27T00:32:31;21.70;;;10.70;;
74634;SDS011;63140;56.306;43.984;2022-09-27T00:34:57;30.42;;;13.32;;
74634;SDS011;63140;56.306;43.984;2022-09-27T00:37:23;26.80;;;12.85;;
74634;SDS011;63140;56.306;43.984;2022-09-27T00:39:50;27.73;;;13.95;;
74634;SDS011;63140;56.306;43.984;2022-09-27T00:42:16;29.57;;;13.93;;
74634;SDS011;63140;56.306;43.984;2022-09-27T00:44:48;24.80;;;12.38;;
74634;SDS011;63140;56.306;43.984;2022-09-27T00:47:35;21.50;;;11.13;;
74634;SDS011;63140;56.306;43.984;2022-09-27T00:50:27;27.25;;;14.45;;
74634;SDS011;63140;56.306;43.984;2022-09-27T00:55:35;27.27;;;13.07;;
74634;SDS011;63140;56.306;43.984;2022-09-27T00:58:06;28.25;;;13.13;;
74634;SDS011;63140;56.306;43.984;2022-09-27T01:00:35;24.05;;;12.73;;
74634;SDS011;63140;56.306;43.984;2022-09-27T01:03:04;23.13;;;12.65;;
74634;SDS011;63140;56.306;43.984;2022-09-27T01:05:34;27.88;;;13.13;;
74634;SDS011;63140;56.306;43.984;2022-09-27T01:08:00;25.30;;;12.15;;
74634;SDS011;63140;56.306;43.984;2022-09-27T01:10:27;30.50;;;13.43;;
74634;SDS011;63140;56.306;43.984;2022-09-27T01:13:19;26.80;;;12.90;;
74634;SDS011;63140;56.306;43.984;2022-09-27T01:15:54;27.40;;;13.13;;
74634;SDS011;63140;56.306;43.984;2022-09-27T01:18:42;26.80;;;13.57;;
74634;SDS011;63140;56.306;43.984;2022-09-27T01:32:58;26.67;;;13.15;;
74634;SDS011;63140;56.306;43.984;2022-09-27T01:41:11;33.05;;;10.73;;
74634;SDS011;63140;56.306;43.984;2022-09-27T01:44:30;23.35;;;12.15;;
74634;SDS011;63140;56.306;43.984;2022-09-27T01:47:20;27.73;;;13.30;;
74634;SDS011;63140;56.306;43.984;2022-09-27T01:50:04;29.33;;;12.70;;
74634;SDS011;63140;56.306;43.984;2022-09-27T01:52:59;21.67;;;10.65;;
74634;SDS011;63140;56.306;43.984;2022-09-27T01:55:37;24.42;;;12.18;;
74634;SDS011;63140;56.306;43.984;2022-09-27T01:58:28;27.33;;;13.68;;
74634;SDS011;63140;56.306;43.984;2022-09-27T02:01:02;28.75;;;13.85;;
74634;SDS011;63140;56.306;43.984;2022-09-27T02:03:34;24.25;;;12.90;;
74634;SDS011;63140;56.306;43.984;2022-09-27T02:06:43;24.70;;;12.48;;
74634;SDS011;63140;56.306;43.984;2022-09-27T02:09:20;26.40;;;13.00;;
74634;SDS011;63140;56.306;43.984;2022-09-27T02:12:13;25.23;;;12.67;;
74634;SDS011;63140;56.306;43.984;2022-09-27T02:14:44;24.80;;;12.52;;
74634;SDS011;63140;56.306;43.984;2022-09-27T02:27:58;22.10;;;11.57;;
74634;SDS011;63140;56.306;43.984;2022-09-27T02:30:49;28.13;;;11.93;;
74634;SDS011;63140;56.306;43.984;2022-09-27T02:33:23;27.08;;;12.10;;
74634;SDS011;63140;56.306;43.984;2022-09-27T02:35:54;39.90;;;12.32;;
74634;SDS011;63140;56.306;43.984;2022-09-27T02:38:21;23.88;;;11.60;;
74634;SDS011;63140;56.306;43.984;2022-09-27T02:40:49;25.98;;;11.63;;
74634;SDS011;63140;56.306;43.984;2022-09-27T02:43:15;33.87;;;12.03;;
74634;SDS011;63140;56.306;43.984;2022-09-27T02:48:46;31.88;;;11.75;;
74634;SDS011;63140;56.306;43.984;2022-09-27T03:03:52;36.63;;;11.63;;
74634;SDS011;63140;56.306;43.984;2022-09-27T03:06:25;34.58;;;11.13;;
74634;SDS011;63140;56.306;43.984;2022-09-27T03:08:54;29.13;;;12.00;;
74634;SDS011;63140;56.306;43.984;2022-09-27T03:11:21;28.40;;;12.55;;
74634;SDS011;63140;56.306;43.984;2022-09-27T03:13:47;25.48;;;12.75;;
74634;SDS011;63140;56.306;43.984;2022-09-27T03:16:13;24.85;;;12.13;;
74634;SDS011;63140;56.306;43.984;2022-09-27T03:19:06;27.48;;;11.75;;
74634;SDS011;63140;56.306;43.984;2022-09-27T03:21:59;25.50;;;11.93;;
74634;SDS011;63140;56.306;43.984;2022-09-27T03:24:25;21.37;;;10.43;;
74634;SDS011;63140;56.306;43.984;2022-09-27T03:26:51;29.17;;;10.63;;
74634;SDS011;63140;56.306;43.984;2022-09-27T03:29:17;27.92;;;10.52;;
74634;SDS011;63140;56.306;43.984;2022-09-27T03:31:47;23.42;;;10.73;;
74634;SDS011;63140;56.306;43.984;2022-09-27T03:34:31;22.47;;;10.43;;
74634;SDS011;63140;56.306;43.984;2022-09-27T03:36:57;19.60;;;9.27;;
74634;SDS011;63140;56.306;43.984;2022-09-27T03:39:23;21.15;;;9.23;;
74634;SDS011;63140;56.306;43.984;2022-09-27T03:41:49;19.70;;;9.15;;
74634;SDS011;63140;56.306;43.984;2022-09-27T03:44:14;17.90;;;9.27;;
74634;SDS011;63140;56.306;43.984;2022-09-27T03:46:40;20.17;;;9.68;;
74634;SDS011;63140;56.306;43.984;2022-09-27T03:49:06;18.48;;;9.93;;
74634;SDS011;63140;56.306;43.984;2022-09-27T03:51:32;20.60;;;10.40;;
74634;SDS011;63140;56.306;43.984;2022-09-27T03:53:58;18.10;;;9.88;;
74634;SDS011;63140;56.306;43.984;2022-09-27T03:56:24;19.40;;;10.30;;
74634;SDS011;63140;56.306;43.984;2022-09-27T03:58:50;17.13;;;9.68;;
74634;SDS011;63140;56.306;43.984;2022-09-27T04:01:16;23.00;;;11.67;;
74634;SDS011;63140;56.306;43.984;2022-09-27T04:03:44;22.02;;;10.50;;
74634;SDS011;63140;56.306;43.984;2022-09-27T04:06:31;23.75;;;10.90;;
74634;SDS011;63140;56.306;43.984;2022-09-27T04:08:59;16.30;;;9.73;;
74634;SDS011;63140;56.306;43.984;2022-09-27T04:11:38;20.25;;;9.98;;
74634;SDS011;63140;56.306;43.984;2022-09-27T04:14:04;23.00;;;10.67;;
74634;SDS011;63140;56.306;43.984;2022-09-27T04:16:35;18.27;;;9.05;;
74634;SDS011;63140;56.306;43.984;2022-09-27T04:19:24;19.13;;;9.70;;
74634;SDS011;63140;56.306;43.984;2022-09-27T04:22:02;18.33;;;10.40;;
74634;SDS011;63140;56.306;43.984;2022-09-27T04:24:28;17.67;;;9.37;;
74634;SDS011;63140;56.306;43.984;2022-09-27T04:27:14;17.47;;;9.37;;
74634;SDS011;63140;56.306;43.984;2022-09-27T04:29:41;17.83;;;9.23;;
74634;SDS011;63140;56.306;43.984;2022-09-27T04:32:26;18.02;;;9.95;;
74634;SDS011;63140;56.306;43.984;2022-09-27T04:35:15;19.63;;;10.15;;
74634;SDS011;63140;56.306;43.984;2022-09-27T04:37:59;18.58;;;10.18;;
74634;SDS011;63140;56.306;43.984;2022-09-27T04:40:25;17.65;;;10.05;;
74634;SDS011;63140;56.306;43.984;2022-09-27T04:42:51;18.20;;;10.40;;
74634;SDS011;63140;56.306;43.984;2022-09-27T04:45:17;19.08;;;10.93;;
74634;SDS011;63140;56.306;43.984;2022-09-27T04:47:44;20.88;;;11.23;;
74634;SDS011;63140;56.306;43.984;2022-09-27T04:50:11;19.05;;;10.88;;
74634;SDS011;63140;56.306;43.984;2022-09-27T04:52:38;17.83;;;9.10;;
74634;SDS011;63140;56.306;43.984;2022-09-27T04:55:06;18.40;;;10.70;;
74634;SDS011;63140;56.306;43.984;2022-09-27T04:57:33;18.77;;;9.73;;
74634;SDS011;63140;56.306;43.984;2022-09-27T04:59:59;23.67;;;10.82;;
74634;SDS011;63140;56.306;43.984;2022-09-27T05:02:26;20.52;;;10.57;;
74634;SDS011;63140;56.306;43.984;2022-09-27T05:05:19;18.70;;;9.75;;
74634;SDS011;63140;56.306;43.984;2022-09-27T05:07:44;20.20;;;10.00;;
74634;SDS011;63140;56.306;43.984;2022-09-27T05:10:22;20.80;;;11.18;;
74634;SDS011;63140;56.306;43.984;2022-09-27T05:12:48;17.17;;;9.65;;
74634;SDS011;63140;56.306;43.984;2022-09-27T05:15:15;19.08;;;10.23;;
74634;SDS011;63140;56.306;43.984;2022-09-27T05:18:04;21.73;;;10.52;;
74634;SDS011;63140;56.306;43.984;2022-09-27T05:20:32;17.00;;;8.30;;
74634;SDS011;63140;56.306;43.984;2022-09-27T05:23:07;17.00;;;8.40;;
74634;SDS011;63140;56.306;43.984;2022-09-27T05:25:34;15.48;;;8.25;;
74634;SDS011;63140;56.306;43.984;2022-09-27T05:28:00;15.63;;;9.45;;
74634;SDS011;63140;56.306;43.984;2022-09-27T05:30:26;17.20;;;9.55;;
74634;SDS011;63140;56.306;43.984;2022-09-27T05:33:02;20.50;;;8.68;;
74634;SDS011;63140;56.306;43.984;2022-09-27T05:35:55;16.37;;;9.13;;
74634;SDS011;63140;56.306;43.984;2022-09-27T05:38:26;16.00;;;8.63;;
74634;SDS011;63140;56.306;43.984;2022-09-27T05:40:55;16.60;;;8.25;;
74634;SDS011;63140;56.306;43.984;2022-09-27T05:43:22;17.80;;;10.57;;
74634;SDS011;63140;56.306;43.984;2022-09-27T05:45:49;17.80;;;10.15;;
74634;SDS011;63140;56.306;43.984;2022-09-27T05:48:19;17.60;;;10.75;;
74634;SDS011;63140;56.306;43.984;2022-09-27T05:50:59;14.85;;;8.75;;
74634;SDS011;63140;56.306;43.984;2022-09-27T05:53:25;15.63;;;8.73;;
74634;SDS011;63140;56.306;43.984;2022-09-27T05:55:52;16.63;;;9.95;;
74634;SDS011;63140;56.306;43.984;2022-09-27T05:58:25;20.02;;;10.57;;
74634;SDS011;63140;56.306;43.984;2022-09-27T06:01:14;19.63;;;10.07;;
74634;SDS011;63140;56.306;43.984;2022-09-27T06:03:59;17.00;;;9.32;;
74634;SDS011;63140;56.306;43.984;2022-09-27T06:06:47;19.57;;;10.07;;
74634;SDS011;63140;56.306;43.984;2022-09-27T06:09:14;17.63;;;9.13;;
74634;SDS011;63140;56.306;43.984;2022-09-27T06:11:42;18.27;;;9.05;;
74634;SDS011;63140;56.306;43.984;2022-09-27T06:14:10;18.10;;;10.80;;
74634;SDS011;63140;56.306;43.984;2022-09-27T06:17:03;17.55;;;9.40;;
74634;SDS011;63140;56.306;43.984;2022-09-27T06:19:32;18.10;;;9.60;;
74634;SDS011;63140;56.306;43.984;2022-09-27T06:21:58;16.80;;;9.85;;
74634;SDS011;63140;56.306;43.984;2022-09-27T06:24:32;19.00;;;10.03;;
74634;SDS011;63140;56.306;43.984;2022-09-27T06:27:04;16.80;;;10.00;;
74634;SDS011;63140;56.306;43.984;2022-09-27T06:29:45;18.38;;;10.18;;
74634;SDS011;63140;56.306;43.984;2022-09-27T06:32:21;19.45;;;9.82;;
74634;SDS011;63140;56.306;43.984;2022-09-27T06:34:56;20.50;;;11.95;;
74634;SDS011;63140;56.306;43.984;2022-09-27T06:37:25;15.57;;;8.73;;
74634;SDS011;63140;56.306;43.984;2022-09-27T06:39:52;17.27;;;10.30;;
74634;SDS011;63140;56.306;43.984;2022-09-27T06:42:41;15.00;;;8.70;;
74634;SDS011;63140;56.306;43.984;2022-09-27T06:45:15;18.27;;;10.77;;
74634;SDS011;63140;56.306;43.984;2022-09-27T06:48:02;17.92;;;10.85;;
74634;SDS011;63140;56.306;43.984;2022-09-27T06:50:40;20.83;;;10.48;;
74634;SDS011;63140;56.306;43.984;2022-09-27T06:53:08;18.35;;;10.60;;
74634;SDS011;63140;56.306;43.984;2022-09-27T06:55:37;24.27;;;11.45;;
74634;SDS011;63140;56.306;43.984;2022-09-27T06:58:03;17.23;;;10.30;;
74634;SDS011;63140;56.306;43.984;2022-09-27T07:01:07;17.00;;;9.60;;
74634;SDS011;63140;56.306;43.984;2022-09-27T07:03:51;18.30;;;10.23;;
74634;SDS011;63140;56.306;43.984;2022-09-27T07:06:38;18.00;;;9.13;;
74634;SDS011;63140;56.306;43.984;2022-09-27T07:09:15;19.80;;;10.45;;
74634;SDS011;63140;56.306;43.984;2022-09-27T07:11:41;15.75;;;9.45;;
74634;SDS011;63140;56.306;43.984;2022-09-27T07:14:10;14.73;;;9.30;;
74634;SDS011;63140;56.306;43.984;2022-09-27T07:16:36;15.88;;;8.27;;
74634;SDS011;63140;56.306;43.984;2022-09-27T07:19:03;15.83;;;9.10;;
74634;SDS011;63140;56.306;43.984;2022-09-27T07:21:32;20.67;;;9.53;;
74634;SDS011;63140;56.306;43.984;2022-09-27T07:23:58;17.23;;;9.53;;
74634;SDS011;63140;56.306;43.984;2022-09-27T07:26:24;18.08;;;8.50;;
74634;SDS011;63140;56.306;43.984;2022-09-27T07:28:50;18.40;;;8.80;;
74634;SDS011;63140;56.306;43.984;2022-09-27T07:31:18;13.00;;;8.23;;
74634;SDS011;63140;56.306;43.984;2022-09-27T07:33:44;13.63;;;8.40;;
74634;SDS011;63140;56.306;43.984;2022-09-27T07:36:10;13.10;;;7.93;;
74634;SDS011;63140;56.306;43.984;2022-09-27T07:38:40;17.92;;;9.90;;
74634;SDS011;63140;56.306;43.984;2022-09-27T07:41:13;17.25;;;10.23;;
74634;SDS011;63140;56.306;43.984;2022-09-27T07:43:40;14.50;;;8.93;;
74634;SDS011;63140;56.306;43.984;2022-09-27T07:46:08;16.15;;;9.23;;
74634;SDS011;63140;56.306;43.984;2022-09-27T07:48:52;12.97;;;8.57;;
74634;SDS011;63140;56.306;43.984;2022-09-27T07:51:32;14.02;;;8.02;;
74634;SDS011;63140;56.306;43.984;2022-09-27T07:54:24;16.02;;;9.35;;
74634;SDS011;63140;56.306;43.984;2022-09-27T07:57:20;16.40;;;8.50;;
74634;SDS011;63140;56.306;43.984;2022-09-27T07:59:50;14.60;;;8.50;;
74634;SDS011;63140;56.306;43.984;2022-09-27T08:02:18;15.13;;;8.43;;
74634;SDS011;63140;56.306;43.984;2022-09-27T08:04:47;16.63;;;8.40;;
74634;SDS011;63140;56.306;43.984;2022-09-27T08:07:13;19.10;;;8.20;;
74634;SDS011;63140;56.306;43.984;2022-09-27T08:09:41;15.90;;;8.55;;
74634;SDS011;63140;56.306;43.984;2022-09-27T08:12:07;13.55;;;8.43;;
74634;SDS011;63140;56.306;43.984;2022-09-27T08:14:33;17.15;;;8.35;;
74634;SDS011;63140;56.306;43.984;2022-09-27T08:16:59;12.40;;;8.20;;
74634;SDS011;63140;56.306;43.984;2022-09-27T08:19:28;21.83;;;8.20;;
74634;SDS011;63140;56.306;43.984;2022-09-27T08:22:03;14.00;;;7.97;;
74634;SDS011;63140;56.306;43.984;2022-09-27T08:24:52;12.70;;;6.55;;
74634;SDS011;63140;56.306;43.984;2022-09-27T08:27:41;12.95;;;8.27;;
74634;SDS011;63140;56.306;43.984;2022-09-27T08:30:22;12.90;;;7.47;;
74634;SDS011;63140;56.306;43.984;2022-09-27T08:32:48;13.15;;;7.57;;
74634;SDS011;63140;56.306;43.984;2022-09-27T08:35:13;11.30;;;7.60;;
74634;SDS011;63140;56.306;43.984;2022-09-27T08:37:40;11.75;;;7.20;;
74634;SDS011;63140;56.306;43.984;2022-09-27T08:40:06;11.63;;;7.45;;
74634;SDS011;63140;56.306;43.984;2022-09-27T08:42:42;16.48;;;9.40;;
74634;SDS011;63140;56.306;43.984;2022-09-27T08:45:54;15.20;;;8.80;;
74634;SDS011;63140;56.306;43.984;2022-09-27T08:48:30;11.88;;;7.38;;
74634;SDS011;63140;56.306;43.984;2022-09-27T08:50:57;12.27;;;7.53;;
74634;SDS011;63140;56.306;43.984;2022-09-27T08:53:27;10.70;;;6.40;;
74634;SDS011;63140;56.306;43.984;2022-09-27T08:55:58;13.73;;;6.95;;
74634;SDS011;63140;56.306;43.984;2022-09-27T08:58:39;20.35;;;8.35;;
74634;SDS011;63140;56.306;43.984;2022-09-27T09:01:19;12.25;;;6.80;;
74634;SDS011;63140;56.306;43.984;2022-09-27T09:03:53;13.77;;;7.28;;
74634;SDS011;63140;56.306;43.984;2022-09-27T09:06:26;12.00;;;6.85;;
74634;SDS011;63140;56.306;43.984;2022-09-27T09:15:24;14.20;;;7.00;;
74634;SDS011;63140;56.306;43.984;2022-09-27T09:32:45;11.37;;;6.20;;
74634;SDS011;63140;56.306;43.984;2022-09-27T09:35:50;9.87;;;6.17;;
74634;SDS011;63140;56.306;43.984;2022-09-27T09:38:33;9.40;;;6.47;;
74634;SDS011;63140;56.306;43.984;2022-09-27T09:43:39;12.15;;;6.10;;
74634;SDS011;63140;56.306;43.984;2022-09-27T09:49:12;9.98;;;6.63;;
74634;SDS011;63140;56.306;43.984;2022-09-27T09:51:52;11.50;;;6.43;;
74634;SDS011;63140;56.306;43.984;2022-09-27T09:57:04;13.23;;;6.97;;
74634;SDS011;63140;56.306;43.984;2022-09-27T09:59:42;11.70;;;6.85;;
74634;SDS011;63140;56.306;43.984;2022-09-27T10:02:33;10.90;;;6.57;;
74634;SDS011;63140;56.306;43.984;2022-09-27T10:05:14;9.95;;;6.70;;
74634;SDS011;63140;56.306;43.984;2022-09-27T10:07:46;11.15;;;7.45;;
74634;SDS011;63140;56.306;43.984;2022-09-27T10:10:16;12.17;;;6.97;;
74634;SDS011;63140;56.306;43.984;2022-09-27T10:13:02;9.77;;;6.23;;
74634;SDS011;63140;56.306;43.984;2022-09-27T10:15:32;11.82;;;6.57;;
74634;SDS011;63140;56.306;43.984;2022-09-27T10:17:58;10.10;;;6.60;;
74634;SDS011;63140;56.306;43.984;2022-09-27T10:20:34;30.95;;;19.10;;
74634;SDS011;63140;56.306;43.984;2022-09-27T10:23:08;12.35;;;7.88;;
74634;SDS011;63140;56.306;43.984;2022-09-27T10:26:02;12.68;;;7.57;;
74634;SDS011;63140;56.306;43.984;2022-09-27T10:28:42;11.13;;;7.30;;
74634;SDS011;63140;56.306;43.984;2022-09-27T10:31:17;13.20;;;7.60;;
74634;SDS011;63140;56.306;43.984;2022-09-27T10:34:14;10.82;;;6.95;;
74634;SDS011;63140;56.306;43.984;2022-09-27T10:43:20;16.92;;;8.63;;
74634;SDS011;63140;56.306;43.984;2022-09-27T10:49:16;16.80;;;8.20;;
74634;SDS011;63140;56.306;43.984;2022-09-27T10:51:44;14.37;;;8.30;;
74634;SDS011;63140;56.306;43.984;2022-09-27T10:54:25;14.20;;;8.82;;
74634;SDS011;63140;56.306;43.984;2022-09-27T10:56:58;14.73;;;9.25;;
74634;SDS011;63140;56.306;43.984;2022-09-27T10:59:29;15.80;;;9.88;;
74634;SDS011;63140;56.306;43.984;2022-09-27T11:01:59;16.67;;;10.05;;
74634;SDS011;63140;56.306;43.984;2022-09-27T11:07:35;15.83;;;9.93;;
74634;SDS011;63140;56.306;43.984;2022-09-27T11:13:07;15.70;;;9.00;;
74634;SDS011;63140;56.306;43.984;2022-09-27T11:27:27;16.67;;;8.73;;
74634;SDS011;63140;56.306;43.984;2022-09-27T11:30:16;21.37;;;8.80;;
74634;SDS011;63140;56.306;43.984;2022-09-27T11:33:07;15.88;;;8.52;;
74634;SDS011;63140;56.306;43.984;2022-09-27T11:38:30;15.52;;;8.73;;
74634;SDS011;63140;56.306;43.984;2022-09-27T11:49:56;9.65;;;6.60;;
74634;SDS011;63140;56.306;43.984;2022-09-27T11:55:23;13.00;;;7.47;;
74634;SDS011;63140;56.306;43.984;2022-09-27T12:01:01;9.80;;;6.82;;
74634;SDS011;63140;56.306;43.984;2022-09-27T12:03:52;10.82;;;6.75;;
74634;SDS011;63140;56.306;43.984;2022-09-27T12:09:05;11.57;;;7.60;;
74634;SDS011;63140;56.306;43.984;2022-09-27T12:11:36;10.52;;;7.18;;
74634;SDS011;63140;56.306;43.984;2022-09-27T12:17:01;14.07;;;7.28;;
74634;SDS011;63140;56.306;43.984;2022-09-27T12:19:40;10.88;;;7.85;;
74634;SDS011;63140;56.306;43.984;2022-09-27T12:22:39;13.95;;;7.47;;
74634;SDS011;63140;56.306;43.984;2022-09-27T12:26:07;10.10;;;7.40;;
74634;SDS011;63140;56.306;43.984;2022-09-27T12:31:31;14.63;;;8.20;;
74634;SDS011;63140;56.306;43.984;2022-09-27T12:34:19;15.25;;;7.80;;
74634;SDS011;63140;56.306;43.984;2022-09-27T12:36:58;13.57;;;9.93;;
74634;SDS011;63140;56.306;43.984;2022-09-27T12:39:37;16.63;;;10.13;;
74634;SDS011;63140;56.306;43.984;2022-09-27T12:42:30;14.32;;;10.23;;
74634;SDS011;63140;56.306;43.984;2022-09-27T12:45:14;16.08;;;9.77;;
74634;SDS011;63140;56.306;43.984;2022-09-27T12:47:45;15.30;;;8.80;;
74634;SDS011;63140;56.306;43.984;2022-09-27T12:56:31;15.43;;;9.20;;
74634;SDS011;63140;56.306;43.984;2022-09-27T13:07:54;11.18;;;8.18;;
74634;SDS011;63140;56.306;43.984;2022-09-27T13:13:29;10.38;;;7.10;;
74634;SDS011;63140;56.306;43.984;2022-09-27T13:15:58;11.90;;;7.38;;
74634;SDS011;63140;56.306;43.984;2022-09-27T13:20:55;12.80;;;8.23;;
74634;SDS011;63140;56.306;43.984;2022-09-27T13:23:48;11.85;;;7.53;;
74634;SDS011;63140;56.306;43.984;2022-09-27T13:26:23;11.88;;;7.75;;
74634;SDS011;63140;56.306;43.984;2022-09-27T13:29:21;10.30;;;6.40;;
74634;SDS011;63140;56.306;43.984;2022-09-27T13:34:49;10.40;;;6.05;;
74634;SDS011;63140;56.306;43.984;2022-09-27T13:37:32;9.03;;;5.50;;
74634;SDS011;63140;56.306;43.984;2022-09-27T13:46:00;8.40;;;5.53;;
74634;SDS011;63140;56.306;43.984;2022-09-27T13:48:43;9.32;;;5.80;;
74634;SDS011;63140;56.306;43.984;2022-09-27T13:51:41;11.32;;;5.15;;
74634;SDS011;63140;56.306;43.984;2022-09-27T13:56:59;8.30;;;5.63;;
74634;SDS011;63140;56.306;43.984;2022-09-27T14:02:28;8.37;;;5.40;;
74634;SDS011;63140;56.306;43.984;2022-09-27T14:05:00;9.07;;;5.05;;
74634;SDS011;63140;56.306;43.984;2022-09-27T14:07:49;9.10;;;5.57;;
74634;SDS011;63140;56.306;43.984;2022-09-27T14:10:17;9.77;;;6.00;;
74634;SDS011;63140;56.306;43.984;2022-09-27T14:12:48;12.57;;;5.40;;
74634;SDS011;63140;56.306;43.984;2022-09-27T14:15:18;10.25;;;5.70;;
74634;SDS011;63140;56.306;43.984;2022-09-27T14:17:58;9.20;;;5.97;;
74634;SDS011;63140;56.306;43.984;2022-09-27T14:20:35;9.77;;;6.33;;
74634;SDS011;63140;56.306;43.984;2022-09-27T14:23:22;11.65;;;5.88;;
74634;SDS011;63140;56.306;43.984;2022-09-27T14:25:52;9.73;;;6.05;;
74634;SDS011;63140;56.306;43.984;2022-09-27T14:28:21;13.20;;;6.13;;
74634;SDS011;63140;56.306;43.984;2022-09-27T14:31:16;12.48;;;6.32;;
74634;SDS011;63140;56.306;43.984;2022-09-27T14:34:03;11.90;;;6.47;;
74634;SDS011;63140;56.306;43.984;2022-09-27T14:36:32;10.73;;;6.87;;
74634;SDS011;63140;56.306;43.984;2022-09-27T14:39:22;10.87;;;6.87;;
74634;SDS011;63140;56.306;43.984;2022-09-27T14:41:53;15.35;;;6.25;;
74634;SDS011;63140;56.306;43.984;2022-09-27T14:44:19;9.88;;;6.00;;
74634;SDS011;63140;56.306;43.984;2022-09-27T14:46:46;9.32;;;5.85;;
74634;SDS011;63140;56.306;43.984;2022-09-27T14:49:30;10.95;;;5.80;;
74634;SDS011;63140;56.306;43.984;2022-09-27T14:52:16;10.95;;;6.75;;
74634;SDS011;63140;56.306;43.984;2022-09-27T14:54:54;11.20;;;5.97;;
74634;SDS011;63140;56.306;43.984;2022-09-27T14:57:20;14.20;;;5.83;;
74634;SDS011;63140;56.306;43.984;2022-09-27T14:59:47;8.50;;;5.73;;
74634;SDS011;63140;56.306;43.984;2022-09-27T15:02:19;10.55;;;5.85;;
74634;SDS011;63140;56.306;43.984;2022-09-27T15:04:48;9.75;;;5.70;;
74634;SDS011;63140;56.306;43.984;2022-09-27T15:07:15;10.18;;;6.20;;
74634;SDS011;63140;56.306;43.984;2022-09-27T15:10:03;8.75;;;5.75;;
74634;SDS011;63140;56.306;43.984;2022-09-27T15:12:30;9.27;;;5.93;;
74634;SDS011;63140;56.306;43.984;2022-09-27T15:14:58;8.83;;;5.57;;
74634;SDS011;63140;56.306;43.984;2022-09-27T15:17:24;13.20;;;6.77;;
74634;SDS011;63140;56.306;43.984;2022-09-27T15:20:14;14.35;;;6.85;;
74634;SDS011;63140;56.306;43.984;2022-09-27T15:22:48;18.13;;;7.25;;
74634;SDS011;63140;56.306;43.984;2022-09-27T15:30:39;14.10;;;7.63;;
74634;SDS011;63140;56.306;43.984;2022-09-27T15:33:20;14.03;;;6.23;;
74634;SDS011;63140;56.306;43.984;2022-09-27T15:35:58;9.97;;;6.07;;
74634;SDS011;63140;56.306;43.984;2022-09-27T15:38:44;12.38;;;6.53;;
74634;SDS011;63140;56.306;43.984;2022-09-27T15:41:13;17.20;;;7.00;;
74634;SDS011;63140;56.306;43.984;2022-09-27T15:43:50;11.18;;;6.72;;
74634;SDS011;63140;56.306;43.984;2022-09-27T15:46:36;10.82;;;6.53;;
74634;SDS011;63140;56.306;43.984;2022-09-27T15:51:45;11.97;;;6.00;;
74634;SDS011;63140;56.306;43.984;2022-09-27T15:54:12;10.77;;;6.70;;
74634;SDS011;63140;56.306;43.984;2022-09-27T15:56:42;11.25;;;7.03;;
74634;SDS011;63140;56.306;43.984;2022-09-27T15:59:19;11.82;;;6.65;;
74634;SDS011;63140;56.306;43.984;2022-09-27T16:01:47;10.52;;;7.07;;
74634;SDS011;63140;56.306;43.984;2022-09-27T16:04:13;9.90;;;6.90;;
74634;SDS011;63140;56.306;43.984;2022-09-27T16:06:40;10.23;;;6.28;;
74634;SDS011;63140;56.306;43.984;2022-09-27T16:09:13;11.33;;;6.40;;
74634;SDS011;63140;56.306;43.984;2022-09-27T16:11:42;9.27;;;5.83;;
74634;SDS011;63140;56.306;43.984;2022-09-27T16:14:08;12.77;;;6.90;;
74634;SDS011;63140;56.306;43.984;2022-09-27T16:16:33;11.20;;;6.18;;
74634;SDS011;63140;56.306;43.984;2022-09-27T16:19:01;11.48;;;7.75;;
74634;SDS011;63140;56.306;43.984;2022-09-27T16:21:27;13.17;;;7.63;;
74634;SDS011;63140;56.306;43.984;2022-09-27T16:23:52;10.65;;;6.68;;
74634;SDS011;63140;56.306;43.984;2022-09-27T16:26:19;10.90;;;7.32;;
74634;SDS011;63140;56.306;43.984;2022-09-27T16:28:45;12.13;;;7.45;;
74634;SDS011;63140;56.306;43.984;2022-09-27T16:31:11;11.73;;;7.40;;
74634;SDS011;63140;56.306;43.984;2022-09-27T16:33:40;11.48;;;7.22;;
74634;SDS011;63140;56.306;43.984;2022-09-27T16:36:07;10.90;;;7.10;;
74634;SDS011;63140;56.306;43.984;2022-09-27T16:38:40;14.27;;;7.97;;
74634;SDS011;63140;56.306;43.984;2022-09-27T16:41:06;11.32;;;7.53;;
74634;SDS011;63140;56.306;43.984;2022-09-27T16:43:32;11.17;;;7.13;;
74634;SDS011;63140;56.306;43.984;2022-09-27T16:46:05;12.43;;;7.27;;
74634;SDS011;63140;56.306;43.984;2022-09-27T16:48:36;11.48;;;7.30;;
74634;SDS011;63140;56.306;43.984;2022-09-27T16:51:06;10.93;;;7.13;;
74634;SDS011;63140;56.306;43.984;2022-09-27T16:53:56;10.90;;;7.30;;
74634;SDS011;63140;56.306;43.984;2022-09-27T16:56:22;10.75;;;6.82;;
74634;SDS011;63140;56.306;43.984;2022-09-27T16:58:48;11.80;;;6.50;;
74634;SDS011;63140;56.306;43.984;2022-09-27T17:01:14;11.40;;;6.83;;
74634;SDS011;63140;56.306;43.984;2022-09-27T17:03:47;11.32;;;6.60;;
74634;SDS011;63140;56.306;43.984;2022-09-27T17:06:15;11.13;;;6.03;;
74634;SDS011;63140;56.306;43.984;2022-09-27T17:08:42;9.07;;;5.88;;
74634;SDS011;63140;56.306;43.984;2022-09-27T17:11:10;10.00;;;6.43;;
74634;SDS011;63140;56.306;43.984;2022-09-27T17:13:39;13.67;;;6.17;;
74634;SDS011;63140;56.306;43.984;2022-09-27T17:16:06;13.23;;;6.03;;
74634;SDS011;63140;56.306;43.984;2022-09-27T17:18:32;9.32;;;6.15;;
74634;SDS011;63140;56.306;43.984;2022-09-27T17:20:59;10.90;;;5.75;;
74634;SDS011;63140;56.306;43.984;2022-09-27T17:23:26;8.57;;;5.90;;
74634;SDS011;63140;56.306;43.984;2022-09-27T17:25:52;9.33;;;5.83;;
74634;SDS011;63140;56.306;43.984;2022-09-27T17:28:21;8.32;;;5.65;;
74634;SDS011;63140;56.306;43.984;2022-09-27T17:30:47;9.85;;;6.18;;
74634;SDS011;63140;56.306;43.984;2022-09-27T17:33:13;10.02;;;6.13;;
74634;SDS011;63140;56.306;43.984;2022-09-27T17:35:39;10.90;;;5.93;;
74634;SDS011;63140;56.306;43.984;2022-09-27T17:38:05;9.75;;;6.15;;
74634;SDS011;63140;56.306;43.984;2022-09-27T17:40:30;9.77;;;5.38;;
74634;SDS011;63140;56.306;43.984;2022-09-27T17:42:58;10.57;;;5.33;;
74634;SDS011;63140;56.306;43.984;2022-09-27T17:45:24;9.60;;;6.45;;
74634;SDS011;63140;56.306;43.984;2022-09-27T17:47:50;8.98;;;5.63;;
74634;SDS011;63140;56.306;43.984;2022-09-27T17:50:34;8.18;;;5.35;;